createdAt,value
2022-08-22T00:02:14.344Z,8.70
2022-08-22T00:04:52.771Z,8.90
2022-08-22T00:07:38.822Z,8.55
2022-08-22T00:10:25.100Z,9.27
2022-08-22T00:13:14.121Z,8.80
2022-08-22T00:15:45.079Z,9.05
2022-08-22T00:18:18.823Z,8.50
2022-08-22T00:20:52.028Z,8.82
2022-08-22T00:23:23.787Z,8.68
2022-08-22T00:25:56.868Z,8.88
2022-08-22T00:28:28.564Z,9.35
2022-08-22T00:30:56.091Z,8.95
2022-08-22T00:33:33.738Z,9.43
2022-08-22T00:36:21.163Z,8.98
2022-08-22T00:38:53.622Z,8.52
2022-08-22T00:41:30.103Z,8.20
2022-08-22T00:44:03.025Z,9.75
2022-08-22T00:46:39.445Z,9.90
2022-08-22T00:49:06.545Z,9.70
2022-08-22T00:51:39.706Z,10.13
2022-08-22T00:54:17.593Z,10.13
2022-08-22T00:57:03.911Z,10.15
2022-08-22T00:59:36.890Z,9.65
2022-08-22T01:02:11.027Z,9.98
2022-08-22T01:04:48.338Z,9.15
2022-08-22T01:07:38.008Z,10.10
2022-08-22T01:10:24.444Z,10.85
2022-08-22T01:13:04.431Z,10.07
2022-08-22T01:15:34.118Z,10.82
2022-08-22T01:18:04.079Z,11.10
2022-08-22T01:20:40.260Z,10.75
2022-08-22T01:23:26.176Z,11.35
2022-08-22T01:26:08.786Z,10.55
2022-08-22T01:29:13.227Z,10.60
2022-08-22T01:31:41.343Z,10.48
2022-08-22T01:34:12.839Z,10.57
2022-08-22T01:36:46.262Z,11.15
2022-08-22T01:39:16.226Z,11.20
2022-08-22T01:42:02.101Z,10.55
2022-08-22T01:44:48.107Z,11.15
2022-08-22T01:47:27.143Z,10.30
2022-08-22T01:49:58.589Z,10.88
2022-08-22T01:52:42.493Z,10.77
2022-08-22T01:55:20.493Z,10.60
2022-08-22T01:57:52.929Z,10.93
2022-08-22T02:00:20.871Z,11.40
2022-08-22T02:03:21.780Z,11.50
2022-08-22T02:06:00.210Z,11.35
2022-08-22T02:08:33.517Z,11.88
2022-08-22T02:11:03.736Z,11.55
2022-08-22T02:13:49.332Z,12.97
2022-08-22T02:16:26.184Z,12.90
2022-08-22T02:19:04.486Z,10.98
2022-08-22T02:21:50.457Z,10.75
2022-08-22T02:24:36.494Z,10.82
2022-08-22T02:27:09.686Z,12.27
2022-08-22T02:29:44.461Z,12.43
2022-08-22T02:32:25.476Z,13.00
2022-08-22T02:35:01.525Z,12.07
2022-08-22T02:37:34.491Z,12.23
2022-08-22T02:40:08.555Z,11.88
2022-08-22T02:42:43.156Z,10.57
2022-08-22T02:45:10.326Z,11.40
2022-08-22T02:47:42.081Z,10.40
2022-08-22T02:50:12.724Z,11.40
2022-08-22T02:52:46.176Z,10.73
2022-08-22T02:55:22.153Z,10.57
2022-08-22T02:57:58.381Z,10.70
2022-08-22T03:00:31.414Z,10.10
2022-08-22T03:03:00.238Z,9.95
2022-08-22T03:05:29.905Z,10.75
2022-08-22T03:08:03.587Z,11.48
2022-08-22T03:10:36.492Z,12.73
2022-08-22T03:13:08.358Z,13.40
2022-08-22T03:15:39.425Z,13.75
2022-08-22T03:18:35.141Z,13.23
2022-08-22T03:21:14.699Z,12.88
2022-08-22T03:23:46.545Z,11.13
2022-08-22T03:26:16.427Z,12.55
2022-08-22T03:28:59.387Z,11.90
2022-08-22T03:31:28.519Z,11.80
2022-08-22T03:34:14.371Z,10.82
2022-08-22T03:36:45.794Z,10.93
2022-08-22T03:39:19.015Z,12.07
2022-08-22T03:41:58.382Z,11.02
2022-08-22T03:44:51.577Z,11.43
2022-08-22T03:47:38.125Z,11.73
2022-08-22T03:50:27.450Z,11.18
2022-08-22T03:53:15.261Z,12.25
2022-08-22T03:55:46.348Z,12.55
2022-08-22T03:58:34.502Z,12.32
2022-08-22T04:01:40.162Z,12.00
2022-08-22T04:04:26.190Z,12.02
2022-08-22T04:06:58.282Z,12.82
2022-08-22T04:09:43.542Z,12.68
2022-08-22T04:12:29.534Z,12.57
2022-08-22T04:15:19.826Z,12.35
2022-08-22T04:18:08.951Z,12.77
2022-08-22T04:20:41.763Z,12.73
2022-08-22T04:23:27.336Z,13.20
2022-08-22T04:25:59.384Z,13.85
2022-08-22T04:28:30.598Z,16.50
2022-08-22T04:33:32.534Z,18.50
2022-08-22T04:36:02.775Z,18.60
2022-08-22T04:38:34.641Z,18.57
2022-08-22T04:41:09.729Z,17.35
2022-08-22T04:43:40.329Z,18.10
2022-08-22T04:46:11.651Z,19.42
2022-08-22T04:48:53.331Z,20.73
2022-08-22T04:51:21.980Z,20.45
2022-08-22T04:53:49.628Z,18.85
2022-08-22T04:56:35.675Z,19.40
2022-08-22T04:59:05.193Z,19.27
2022-08-22T05:01:51.292Z,19.63
2022-08-22T05:04:23.700Z,19.33
2022-08-22T05:06:53.705Z,19.75
2022-08-22T05:09:25.898Z,19.20
2022-08-22T05:11:54.582Z,21.02
2022-08-22T05:14:28.259Z,18.40
2022-08-22T05:16:57.486Z,19.25
2022-08-22T05:19:32.121Z,19.88
2022-08-22T05:21:59.827Z,19.20
2022-08-22T05:24:32.587Z,20.20
2022-08-22T05:27:04.492Z,20.35
2022-08-22T05:29:33.048Z,19.13
2022-08-22T05:32:05.364Z,22.83
2022-08-22T05:34:38.959Z,21.20
2022-08-22T05:37:08.186Z,20.50
2022-08-22T05:39:56.037Z,20.52
2022-08-22T05:42:27.579Z,20.38
2022-08-22T05:44:55.442Z,19.92
2022-08-22T05:47:24.449Z,20.85
2022-08-22T05:50:07.583Z,20.58
2022-08-22T05:52:34.776Z,19.67
2022-08-22T05:55:05.876Z,20.60
2022-08-22T06:00:04.029Z,18.50
2022-08-22T06:05:00.869Z,18.42
2022-08-22T06:07:36.010Z,17.75
2022-08-22T06:10:07.529Z,19.02
2022-08-22T06:12:43.397Z,19.08
2022-08-22T06:15:12.651Z,17.85
2022-08-22T06:17:50.627Z,16.75
2022-08-22T06:20:26.145Z,15.80
2022-08-22T06:22:58.824Z,13.98
2022-08-22T06:25:28.332Z,13.87
2022-08-22T06:27:56.372Z,14.43
2022-08-22T06:30:24.723Z,12.85
2022-08-22T06:33:00.026Z,11.23
2022-08-22T06:35:53.033Z,13.75
2022-08-22T06:38:21.471Z,13.52
2022-08-22T06:40:50.681Z,13.20
2022-08-22T06:43:18.335Z,12.98
2022-08-22T06:45:45.778Z,11.50
2022-08-22T06:48:16.262Z,11.68
2022-08-22T06:50:44.677Z,10.95
2022-08-22T06:53:19.310Z,10.82
2022-08-22T06:55:51.962Z,10.13
2022-08-22T06:58:21.714Z,9.63
2022-08-22T07:01:05.696Z,8.05
2022-08-22T07:06:07.104Z,8.30
2022-08-22T07:08:39.001Z,7.97
2022-08-22T07:11:12.568Z,8.00
2022-08-22T07:13:43.744Z,8.13
2022-08-22T07:16:11.145Z,7.60
2022-08-22T07:18:46.966Z,6.85
2022-08-22T07:21:23.876Z,7.50
2022-08-22T07:23:51.476Z,7.72
2022-08-22T07:26:31.629Z,7.80
2022-08-22T07:29:09.059Z,7.05
2022-08-22T07:31:56.300Z,7.22
2022-08-22T07:34:38.073Z,6.75
2022-08-22T07:37:16.054Z,6.70
2022-08-22T07:39:58.081Z,7.60
2022-08-22T07:42:30.350Z,6.80
2022-08-22T07:45:09.343Z,7.10
2022-08-22T07:47:55.470Z,6.65
2022-08-22T07:50:25.127Z,6.35
2022-08-22T07:52:53.365Z,7.03
2022-08-22T07:55:23.287Z,7.22
2022-08-22T07:58:13.655Z,6.47
2022-08-22T08:00:45.728Z,7.20
2022-08-22T08:03:13.496Z,6.70
2022-08-22T08:05:43.533Z,6.30
2022-08-22T08:08:27.502Z,6.03
2022-08-22T08:10:56.733Z,5.95
2022-08-22T08:13:27.599Z,5.97
2022-08-22T08:15:54.987Z,6.07
2022-08-22T08:18:25.847Z,5.70
2022-08-22T08:20:56.945Z,6.05
2022-08-22T08:23:25.254Z,5.85
2022-08-22T08:25:55.115Z,5.85
2022-08-22T08:28:35.296Z,5.90
2022-08-22T08:31:10.887Z,5.90
2022-08-22T08:33:40.553Z,6.10
2022-08-22T08:36:30.390Z,5.57
2022-08-22T08:39:12.409Z,5.60
2022-08-22T08:41:58.601Z,5.78
2022-08-22T08:44:43.408Z,5.68
2022-08-22T08:47:22.900Z,10.55
2022-08-22T08:49:57.715Z,5.87
2022-08-22T08:55:46.095Z,5.90
2022-08-22T08:58:17.651Z,6.88
2022-08-22T09:00:49.062Z,5.07
2022-08-22T09:03:30.572Z,5.28
2022-08-22T09:06:04.974Z,5.55
2022-08-22T09:08:55.789Z,5.72
2022-08-22T09:11:42.620Z,6.53
2022-08-22T09:14:13.025Z,6.75
2022-08-22T09:17:00.264Z,6.55
2022-08-22T09:19:33.510Z,5.97
2022-08-22T09:22:14.568Z,6.57
2022-08-22T09:25:00.645Z,6.43
2022-08-22T09:27:36.911Z,6.70
2022-08-22T09:30:11.653Z,7.45
2022-08-22T09:32:45.210Z,7.05
2022-08-22T09:35:19.395Z,7.97
2022-08-22T09:38:08.290Z,7.55
2022-08-22T09:40:16.098Z,5.85
2022-08-22T09:40:42.576Z,7.32
2022-08-22T09:43:13.692Z,8.55
2022-08-22T09:45:52.274Z,8.23
2022-08-22T09:48:26.665Z,8.23
2022-08-22T09:51:13.577Z,8.30
2022-08-22T09:53:53.916Z,7.93
2022-08-22T09:56:30.941Z,7.82
2022-08-22T09:58:58.053Z,7.82
2022-08-22T10:01:32.805Z,7.90
2022-08-22T10:04:19.316Z,7.93
2022-08-22T10:06:55.897Z,7.75
2022-08-22T10:09:31.289Z,7.22
2022-08-22T10:12:04.712Z,8.02
2022-08-22T10:14:40.572Z,7.82
2022-08-22T10:17:26.308Z,7.82
2022-08-22T10:20:06.287Z,7.35
2022-08-22T10:22:39.481Z,7.22
2022-08-22T10:25:25.389Z,8.35
2022-08-22T10:28:01.561Z,8.00
2022-08-22T10:30:39.372Z,7.70
2022-08-22T10:33:17.386Z,7.05
2022-08-22T10:35:44.835Z,7.63
2022-08-22T10:38:14.832Z,7.60
2022-08-22T10:41:17.535Z,7.65
2022-08-22T10:43:56.375Z,7.70
2022-08-22T10:46:28.962Z,7.85
2022-08-22T10:49:07.824Z,9.35
2022-08-22T10:51:50.827Z,8.10
2022-08-22T10:54:19.774Z,8.30
2022-08-22T10:56:51.730Z,8.98
2022-08-22T10:59:39.274Z,8.13
2022-08-22T11:02:06.522Z,8.82
2022-08-22T11:04:35.345Z,8.57
2022-08-22T11:07:22.476Z,8.80
2022-08-22T11:09:54.535Z,9.10
2022-08-22T11:12:34.899Z,9.55
2022-08-22T11:15:09.107Z,8.20
2022-08-22T11:17:57.437Z,9.57
2022-08-22T11:20:33.767Z,9.07
2022-08-22T11:23:26.497Z,9.43
2022-08-22T11:25:58.142Z,9.35
2022-08-22T11:28:50.767Z,10.10
2022-08-22T11:31:31.752Z,9.45
2022-08-22T11:34:22.381Z,11.15
2022-08-22T11:36:54.921Z,9.45
2022-08-22T11:39:45.463Z,9.95
2022-08-22T11:42:14.399Z,9.88
2022-08-22T11:44:43.012Z,9.30
2022-08-22T11:47:20.158Z,9.20
2022-08-22T11:49:53.837Z,8.88
2022-08-22T11:52:39.135Z,9.27
2022-08-22T11:55:18.506Z,8.93
2022-08-22T11:57:48.269Z,9.10
2022-08-22T12:00:20.861Z,8.97
2022-08-22T12:02:53.958Z,8.50
2022-08-22T12:05:26.315Z,8.32
2022-08-22T12:07:57.398Z,8.45
2022-08-22T12:10:30.867Z,8.68
2022-08-22T12:12:58.430Z,8.88
2022-08-22T12:15:34.285Z,8.07
2022-08-22T12:18:21.523Z,8.35
2022-08-22T12:20:57.755Z,8.50
2022-08-22T12:23:50.425Z,8.15
2022-08-22T12:26:36.206Z,8.68
2022-08-22T12:29:03.730Z,8.45
2022-08-22T12:31:33.669Z,7.95
2022-08-22T12:34:18.374Z,8.23
2022-08-22T12:36:50.977Z,8.00
2022-08-22T12:39:31.140Z,8.10
2022-08-22T12:42:17.422Z,7.70
2022-08-22T12:44:47.646Z,8.38
2022-08-22T12:47:31.948Z,7.97
2022-08-22T12:49:59.353Z,8.27
2022-08-22T12:52:35.803Z,7.30
2022-08-22T12:55:15.298Z,7.97
2022-08-22T12:57:50.429Z,7.13
2022-08-22T13:00:27.132Z,7.22
2022-08-22T13:02:58.304Z,7.47
2022-08-22T13:05:27.445Z,7.82
2022-08-22T13:08:04.582Z,7.38
2022-08-22T13:10:41.578Z,7.50
2022-08-22T13:13:11.909Z,7.97
2022-08-22T13:15:53.567Z,7.53
2022-08-22T13:18:30.420Z,7.50
2022-08-22T13:20:59.396Z,7.90
2022-08-22T13:23:29.003Z,7.38
2022-08-22T13:26:07.779Z,7.30
2022-08-22T13:28:42.201Z,7.10
2022-08-22T13:31:10.477Z,7.68
2022-08-22T13:33:47.037Z,9.30
2022-08-22T13:36:16.139Z,9.73
2022-08-22T13:39:04.239Z,7.82
2022-08-22T13:41:39.173Z,7.22
2022-08-22T13:44:18.429Z,7.28
2022-08-22T13:47:12.876Z,8.00
2022-08-22T13:49:41.378Z,7.75
2022-08-22T13:52:14.658Z,13.80
2022-08-22T13:55:00.814Z,9.50
2022-08-22T13:57:28.342Z,8.02
2022-08-22T14:00:06.298Z,7.93
2022-08-22T14:02:52.793Z,8.48
2022-08-22T14:05:25.977Z,7.03
2022-08-22T14:08:12.872Z,7.25
2022-08-22T14:10:44.084Z,7.60
2022-08-22T14:13:12.800Z,7.57
2022-08-22T14:15:45.041Z,7.75
2022-08-22T14:18:13.003Z,7.50
2022-08-22T14:20:41.194Z,6.80
2022-08-22T14:23:11.523Z,10.68
2022-08-22T14:25:39.947Z,10.88
2022-08-22T14:28:09.458Z,8.90
2022-08-22T14:30:40.266Z,7.33
2022-08-22T14:35:56.068Z,6.90
2022-08-22T14:38:30.144Z,6.60
2022-08-22T14:41:10.605Z,7.22
2022-08-22T14:43:48.127Z,6.00
2022-08-22T14:46:20.296Z,6.70
2022-08-22T14:51:24.404Z,7.43
2022-08-22T14:53:51.599Z,7.07
2022-08-22T14:56:21.980Z,7.30
2022-08-22T15:01:18.749Z,11.00
2022-08-22T15:04:00.084Z,7.80
2022-08-22T15:06:38.368Z,7.47
2022-08-22T15:09:31.631Z,8.50
2022-08-22T15:11:59.565Z,8.88
2022-08-22T15:14:37.808Z,8.90
2022-08-22T15:17:07.252Z,9.65
2022-08-22T15:19:35.246Z,12.43
2022-08-22T15:22:21.091Z,10.02
2022-08-22T15:25:03.234Z,8.93
2022-08-22T15:27:32.001Z,9.13
2022-08-22T15:30:00.680Z,9.02
2022-08-22T15:32:31.329Z,9.73
2022-08-22T15:35:10.639Z,9.57
2022-08-22T15:38:16.478Z,9.55
2022-08-22T15:40:45.675Z,10.02
2022-08-22T15:43:28.912Z,9.48
2022-08-22T15:46:27.949Z,9.73
2022-08-22T15:49:00.139Z,9.07
2022-08-22T15:51:46.190Z,9.32
2022-08-22T15:54:24.361Z,9.20
2022-08-22T15:56:52.799Z,9.25
2022-08-22T15:59:25.554Z,9.88
2022-08-22T16:01:55.132Z,9.88
2022-08-22T16:04:33.986Z,8.70
2022-08-22T16:07:01.746Z,9.98
2022-08-22T16:09:37.599Z,8.95
2022-08-22T16:12:06.626Z,10.95
2022-08-22T16:14:33.746Z,9.45
2022-08-22T16:17:03.603Z,10.23
2022-08-22T16:19:33.010Z,10.50
2022-08-22T16:22:00.197Z,10.63
2022-08-22T16:24:27.350Z,9.70
2022-08-22T16:26:54.683Z,10.05
2022-08-22T16:29:21.802Z,10.38
2022-08-22T16:31:48.948Z,9.60
2022-08-22T16:34:18.903Z,9.95
2022-08-22T16:36:46.052Z,9.23
2022-08-22T16:39:22.485Z,9.95
2022-08-22T16:41:50.973Z,9.73
2022-08-22T16:44:30.095Z,10.07
2022-08-22T16:47:23.574Z,10.15
2022-08-22T16:49:50.734Z,10.38
2022-08-22T16:52:26.832Z,9.43
2022-08-22T16:54:53.980Z,9.57
2022-08-22T16:57:21.108Z,9.55
2022-08-22T16:59:54.744Z,9.88
2022-08-22T17:02:21.959Z,8.95
2022-08-22T17:05:02.864Z,9.98
2022-08-22T17:10:04.432Z,9.52
2022-08-22T17:12:39.924Z,9.82
2022-08-22T17:15:33.229Z,10.48
2022-08-22T17:18:10.761Z,10.05
2022-08-22T17:21:11.747Z,9.77
2022-08-22T17:23:46.019Z,10.20
2022-08-22T17:26:41.190Z,11.75
2022-08-22T17:29:23.498Z,10.55
2022-08-22T17:31:53.351Z,10.77
2022-08-22T17:34:20.455Z,10.68
2022-08-22T17:37:06.475Z,10.63
2022-08-22T17:39:55.631Z,10.80
2022-08-22T17:42:41.482Z,11.05
2022-08-22T17:45:23.410Z,10.88
2022-08-22T17:47:55.717Z,12.52
2022-08-22T17:50:35.170Z,11.80
2022-08-22T17:53:06.409Z,10.95
2022-08-22T17:55:37.653Z,12.50
2022-08-22T17:58:12.229Z,11.52
2022-08-22T18:01:04.865Z,11.35
2022-08-22T18:03:34.141Z,11.35
2022-08-22T18:06:18.943Z,11.95
2022-08-22T18:11:40.839Z,14.43
2022-08-22T18:14:12.932Z,14.45
2022-08-22T18:16:44.957Z,12.02
2022-08-22T18:19:18.461Z,11.93
2022-08-22T18:22:21.435Z,11.23
2022-08-22T18:25:02.600Z,11.52
2022-08-22T18:27:34.611Z,11.45
2022-08-22T18:30:08.715Z,10.98
2022-08-22T18:32:41.267Z,11.80
2022-08-22T18:35:23.006Z,11.63
2022-08-22T18:37:51.055Z,11.48
2022-08-22T18:40:31.345Z,10.50
2022-08-22T18:43:04.356Z,10.00
2022-08-22T18:45:46.829Z,9.70
2022-08-22T18:48:27.136Z,9.70
2022-08-22T18:51:13.358Z,9.68
2022-08-22T18:54:00.848Z,9.20
2022-08-22T18:56:47.916Z,10.13
2022-08-22T18:59:34.052Z,10.00
2022-08-22T19:02:20.813Z,10.23
2022-08-22T19:04:48.156Z,11.23
2022-08-22T19:07:15.469Z,10.00
2022-08-22T19:09:42.710Z,11.15
2022-08-22T19:12:34.303Z,11.40
2022-08-22T19:15:21.674Z,9.95
2022-08-22T19:17:59.101Z,9.82
2022-08-22T19:20:47.404Z,10.75
2022-08-22T19:23:32.963Z,10.63
2022-08-22T19:26:38.689Z,10.60
2022-08-22T19:29:26.145Z,10.43
2022-08-22T19:31:55.178Z,11.32
2022-08-22T19:34:22.637Z,10.73
2022-08-22T19:37:11.498Z,10.80
2022-08-22T19:40:07.904Z,10.63
2022-08-22T19:42:36.851Z,10.82
2022-08-22T19:45:04.389Z,10.80
2022-08-22T19:47:35.033Z,10.60
2022-08-22T19:50:18.191Z,11.50
2022-08-22T19:52:50.120Z,11.32
2022-08-22T19:55:17.557Z,11.63
2022-08-22T19:57:57.189Z,10.70
2022-08-22T20:00:43.189Z,11.25
2022-08-22T20:03:18.783Z,12.98
2022-08-22T20:05:56.593Z,11.77
2022-08-22T20:08:31.239Z,12.60
2022-08-22T20:11:04.626Z,13.35
2022-08-22T20:13:33.666Z,12.50
2022-08-22T20:16:00.784Z,11.23
2022-08-22T20:18:48.103Z,10.90
2022-08-22T20:21:39.097Z,12.20
2022-08-22T20:24:11.218Z,12.30
2022-08-22T20:26:52.094Z,11.75
2022-08-22T20:29:32.081Z,12.10
2022-08-22T20:31:59.433Z,11.77
2022-08-22T20:34:28.687Z,11.85
2022-08-22T20:37:16.065Z,12.05
2022-08-22T20:40:04.498Z,12.57
2022-08-22T20:42:32.653Z,11.70
2022-08-22T20:45:01.243Z,11.75
2022-08-22T20:47:36.232Z,11.60
2022-08-22T20:50:10.239Z,11.80
2022-08-22T20:52:41.499Z,12.02
2022-08-22T20:55:11.660Z,11.48
2022-08-22T20:57:55.584Z,11.30
2022-08-22T21:00:24.509Z,10.98
2022-08-22T21:02:51.691Z,11.63
2022-08-22T21:05:22.362Z,12.65
2022-08-22T21:08:02.554Z,12.63
2022-08-22T21:10:50.315Z,12.93
2022-08-22T21:13:22.550Z,11.93
2022-08-22T21:15:51.529Z,12.77
2022-08-22T21:18:27.113Z,11.60
2022-08-22T21:20:54.445Z,12.55
2022-08-22T21:23:21.819Z,12.45
2022-08-22T21:25:54.395Z,12.45
2022-08-22T21:28:46.960Z,12.20
2022-08-22T21:31:16.341Z,12.93
2022-08-22T21:33:45.364Z,13.00
2022-08-22T21:36:13.701Z,12.57
2022-08-22T21:38:41.579Z,12.77
2022-08-22T21:41:08.724Z,13.88
2022-08-22T21:43:37.935Z,12.32
2022-08-22T21:46:05.868Z,12.82
2022-08-22T21:48:38.061Z,12.68
2022-08-22T21:51:21.507Z,12.75
2022-08-22T21:53:48.859Z,12.65
2022-08-22T21:56:30.847Z,13.30
2022-08-22T21:59:16.513Z,13.75
2022-08-22T22:01:43.688Z,12.15
2022-08-22T22:04:13.287Z,12.88
2022-08-22T22:06:40.442Z,12.05
2022-08-22T22:09:10.896Z,12.65
2022-08-22T22:11:40.748Z,13.48
2022-08-22T22:14:07.935Z,13.32
2022-08-22T22:16:35.168Z,13.23
2022-08-22T22:19:02.401Z,12.55
2022-08-22T22:21:29.540Z,12.25
2022-08-22T22:23:58.445Z,12.90
2022-08-22T22:26:26.778Z,12.88
2022-08-22T22:28:53.965Z,13.50
2022-08-22T22:31:21.114Z,13.02
2022-08-22T22:33:48.316Z,11.80
2022-08-22T22:36:24.191Z,13.35
2022-08-22T22:38:52.420Z,13.38
2022-08-22T22:41:23.299Z,12.98
2022-08-22T22:43:50.554Z,13.20
2022-08-22T22:46:17.723Z,13.93
2022-08-22T22:48:45.002Z,12.88
2022-08-22T22:51:12.795Z,14.15
2022-08-22T22:53:43.107Z,13.80
2022-08-22T22:58:38.517Z,13.82
2022-08-22T23:01:19.749Z,14.77
2022-08-22T23:03:47.341Z,14.10
2022-08-22T23:06:19.142Z,15.68
2022-08-22T23:08:46.964Z,14.68
2022-08-22T23:11:15.517Z,16.13
2022-08-22T23:13:42.945Z,15.45
2022-08-22T23:16:11.989Z,16.83
2022-08-22T23:18:39.180Z,17.52
2022-08-22T23:21:10.317Z,16.63
2022-08-22T23:26:04.597Z,16.00
2022-08-22T23:28:31.732Z,16.70
2022-08-22T23:31:09.180Z,16.13
2022-08-22T23:33:36.379Z,15.38
2022-08-22T23:36:09.869Z,16.02
2022-08-22T23:38:37.043Z,16.52
2022-08-22T23:41:09.259Z,14.88
2022-08-22T23:43:37.110Z,15.38
2022-08-22T23:46:04.392Z,12.90
2022-08-22T23:48:31.566Z,11.63
2022-08-22T23:50:58.816Z,13.15
2022-08-22T23:53:26.118Z,11.98
2022-08-22T23:55:53.312Z,13.35
2022-08-22T23:58:21.103Z,13.30
